createdAt,value
2017-09-22T00:00:47.486Z,18.57
2017-09-22T00:03:15.778Z,19.20
2017-09-22T00:05:45.640Z,16.87
2017-09-22T00:08:13.956Z,17.60
2017-09-22T00:10:43.186Z,19.17
2017-09-22T00:13:12.882Z,19.10
2017-09-22T00:15:41.033Z,18.70
2017-09-22T00:18:10.455Z,19.27
2017-09-22T00:20:40.137Z,19.97
2017-09-22T00:23:09.651Z,21.10
2017-09-22T00:25:39.315Z,21.60
2017-09-22T00:28:07.646Z,19.13
2017-09-22T00:30:36.696Z,21.63
2017-09-22T00:33:05.738Z,22.87
2017-09-22T00:35:34.057Z,22.67
2017-09-22T00:38:03.488Z,20.27
2017-09-22T00:40:33.136Z,21.73
2017-09-22T00:43:01.391Z,21.97
2017-09-22T00:45:29.678Z,18.80
2017-09-22T00:47:57.965Z,19.30
2017-09-22T00:50:27.633Z,19.13
2017-09-22T00:52:55.794Z,19.40
2017-09-22T00:55:24.074Z,20.00
2017-09-22T00:57:52.443Z,18.37
2017-09-22T01:00:21.127Z,18.90
2017-09-22T01:02:50.546Z,19.17
2017-09-22T01:05:18.871Z,21.23
2017-09-22T01:07:48.510Z,16.57
2017-09-22T01:10:17.467Z,16.87
2017-09-22T01:12:47.231Z,17.07
2017-09-22T01:15:15.788Z,14.10
2017-09-22T01:17:45.439Z,15.47
2017-09-22T01:20:15.209Z,15.80
2017-09-22T01:22:43.534Z,15.50
2017-09-22T01:25:13.383Z,16.60
2017-09-22T01:27:43.077Z,18.03
2017-09-22T01:30:11.999Z,17.40
2017-09-22T01:32:40.286Z,16.30
2017-09-22T01:35:09.778Z,19.80
2017-09-22T01:37:39.411Z,19.50
2017-09-22T01:40:07.962Z,18.40
2017-09-22T01:42:36.306Z,17.90
2017-09-22T01:45:05.938Z,20.20
2017-09-22T01:47:35.446Z,24.17
2017-09-22T01:50:03.674Z,25.37
2017-09-22T01:52:32.358Z,21.57
2017-09-22T01:55:01.435Z,22.90
2017-09-22T01:57:29.767Z,23.77
2017-09-22T01:59:58.815Z,20.57
2017-09-22T02:02:27.101Z,24.53
2017-09-22T02:04:56.780Z,21.40
2017-09-22T02:07:24.935Z,21.60
2017-09-22T02:09:53.220Z,27.77
2017-09-22T02:12:22.915Z,25.63
2017-09-22T02:14:51.466Z,23.00
2017-09-22T02:17:19.750Z,23.73
2017-09-22T02:19:48.119Z,17.80
2017-09-22T02:22:16.414Z,16.47
2017-09-22T02:24:44.707Z,17.13
2017-09-22T02:27:14.446Z,17.20
2017-09-22T02:29:43.986Z,16.27
2017-09-22T02:32:12.929Z,13.00
2017-09-22T02:34:41.258Z,15.20
2017-09-22T02:37:10.889Z,15.67
2017-09-22T02:39:40.562Z,15.90
2017-09-22T02:42:10.246Z,16.10
2017-09-22T02:44:38.799Z,16.47
2017-09-22T02:47:08.425Z,18.50
2017-09-22T02:49:37.042Z,19.07
2017-09-22T02:52:05.328Z,18.10
2017-09-22T02:54:35.118Z,14.97
2017-09-22T02:57:04.225Z,15.40
2017-09-22T02:59:33.854Z,17.83
2017-09-22T03:02:02.307Z,16.80
2017-09-22T03:04:32.137Z,20.50
2017-09-22T03:07:00.421Z,18.43
2017-09-22T03:09:30.211Z,18.20
2017-09-22T03:11:59.890Z,17.07
2017-09-22T03:14:28.814Z,18.77
2017-09-22T03:16:57.103Z,16.83
2017-09-22T03:19:25.426Z,15.10
2017-09-22T03:21:54.471Z,16.00
2017-09-22T03:24:24.101Z,14.83
2017-09-22T03:26:52.723Z,14.33
2017-09-22T03:29:21.008Z,14.30
2017-09-22T03:31:50.796Z,13.97
2017-09-22T03:34:19.146Z,16.40
2017-09-22T03:36:47.440Z,15.03
2017-09-22T03:39:17.250Z,14.27
2017-09-22T03:41:45.622Z,14.40
2017-09-22T03:44:15.299Z,15.23
2017-09-22T03:46:43.885Z,13.00
2017-09-22T03:49:12.230Z,13.87
2017-09-22T03:51:41.880Z,14.90
2017-09-22T03:54:10.435Z,14.00
2017-09-22T03:56:40.116Z,15.23
2017-09-22T03:59:09.043Z,13.00
2017-09-22T04:01:38.343Z,13.30
2017-09-22T04:04:08.026Z,15.40
2017-09-22T04:06:36.578Z,15.77
2017-09-22T04:09:04.862Z,16.13
2017-09-22T04:11:34.708Z,16.50
2017-09-22T04:14:04.343Z,18.10
2017-09-22T04:16:33.646Z,17.53
2017-09-22T04:19:03.528Z,16.47
2017-09-22T04:21:31.826Z,18.37
2017-09-22T04:24:00.115Z,15.80
2017-09-22T04:26:29.607Z,19.27
2017-09-22T04:28:58.048Z,15.10
2017-09-22T04:31:26.441Z,17.30
2017-09-22T04:33:54.786Z,17.50
2017-09-22T04:36:24.420Z,13.93
2017-09-22T04:38:52.680Z,16.77
2017-09-22T04:41:21.006Z,14.77
2017-09-22T04:43:50.674Z,13.23
2017-09-22T04:46:20.511Z,15.30
2017-09-22T04:48:50.363Z,14.37
2017-09-22T04:51:18.530Z,13.83
2017-09-22T04:53:48.350Z,16.00
2017-09-22T04:56:16.592Z,15.80
2017-09-22T04:58:44.952Z,13.13
2017-09-22T05:01:13.286Z,14.43
2017-09-22T05:03:43.167Z,15.03
2017-09-22T05:06:11.479Z,14.33
2017-09-22T05:08:39.922Z,16.17
2017-09-22T05:11:08.328Z,14.60
2017-09-22T05:13:38.139Z,15.40
2017-09-22T05:16:06.438Z,15.53
2017-09-22T05:18:35.937Z,14.67
2017-09-22T05:21:05.578Z,15.40
2017-09-22T05:23:33.748Z,14.90
2017-09-22T05:26:03.228Z,15.03
2017-09-22T05:28:32.283Z,14.77
2017-09-22T05:31:00.566Z,14.70
2017-09-22T05:33:28.919Z,16.47
2017-09-22T05:35:57.330Z,16.03
2017-09-22T05:38:26.806Z,15.37
2017-09-22T05:40:55.269Z,14.70
2017-09-22T05:43:23.556Z,14.70
2017-09-22T05:45:51.951Z,16.07
2017-09-22T05:48:21.653Z,16.17
2017-09-22T05:50:49.918Z,14.83
2017-09-22T05:53:19.560Z,15.67
2017-09-22T05:55:47.915Z,15.63
2017-09-22T05:58:16.230Z,15.37
2017-09-22T06:00:45.890Z,16.27
2017-09-22T06:03:15.618Z,16.60
2017-09-22T06:05:44.692Z,16.70
2017-09-22T06:08:13.779Z,16.40
2017-09-22T06:10:43.658Z,17.30
2017-09-22T06:13:12.247Z,16.37
2017-09-22T06:15:40.533Z,16.70
2017-09-22T06:18:09.095Z,17.23
2017-09-22T06:20:38.515Z,16.70
2017-09-22T06:23:06.807Z,16.47
2017-09-22T06:25:35.202Z,15.43
2017-09-22T06:28:03.520Z,16.43
2017-09-22T06:30:33.366Z,14.60
2017-09-22T06:33:02.514Z,15.77
2017-09-22T06:35:31.701Z,18.10
2017-09-22T06:38:00.011Z,14.37
2017-09-22T06:40:29.783Z,16.43
2017-09-22T06:42:59.573Z,17.07
2017-09-22T06:45:27.858Z,14.77
2017-09-22T06:47:57.759Z,16.20
2017-09-22T06:50:28.094Z,15.23
2017-09-22T06:52:58.034Z,15.60
2017-09-22T06:55:26.410Z,15.73
2017-09-22T06:57:54.727Z,16.57
2017-09-22T07:00:27.163Z,16.60
2017-09-22T07:02:56.247Z,15.10
2017-09-22T07:05:24.587Z,16.43
2017-09-22T07:07:52.927Z,14.13
2017-09-22T07:10:21.215Z,16.67
2017-09-22T07:12:49.495Z,16.33
2017-09-22T07:15:17.839Z,16.53
2017-09-22T07:17:46.198Z,17.63
2017-09-22T07:20:15.653Z,16.63
2017-09-22T07:22:44.020Z,19.30
2017-09-22T07:25:12.300Z,16.07
2017-09-22T07:27:41.352Z,16.27
2017-09-22T07:30:09.854Z,16.27
2017-09-22T07:32:38.903Z,16.23
2017-09-22T07:35:08.034Z,16.60
2017-09-22T07:37:36.431Z,17.53
2017-09-22T07:40:06.222Z,17.80
2017-09-22T07:42:36.050Z,18.10
2017-09-22T07:45:04.442Z,15.67
2017-09-22T07:47:34.354Z,18.43
2017-09-22T07:50:02.676Z,17.90
2017-09-22T07:52:31.021Z,16.60
2017-09-22T07:54:59.460Z,16.97
2017-09-22T07:57:27.743Z,17.40
2017-09-22T07:59:57.413Z,16.80
2017-09-22T08:02:26.031Z,16.03
2017-09-22T08:04:55.860Z,15.80
2017-09-22T08:07:24.975Z,17.00
2017-09-22T08:09:54.658Z,15.03
2017-09-22T08:12:24.205Z,16.80
2017-09-22T08:14:53.679Z,15.57
2017-09-22T08:17:22.008Z,17.57
2017-09-22T08:19:51.882Z,18.73
2017-09-22T08:22:20.582Z,17.87
2017-09-22T08:24:50.010Z,19.00
2017-09-22T08:27:19.198Z,18.57
2017-09-22T08:29:48.339Z,17.73
2017-09-22T08:32:17.532Z,19.23
2017-09-22T08:34:46.602Z,19.43
2017-09-22T08:37:16.654Z,19.70
2017-09-22T08:39:45.599Z,18.23
2017-09-22T08:42:15.413Z,18.77
2017-09-22T08:44:43.777Z,20.03
2017-09-22T08:47:12.062Z,20.30
2017-09-22T08:49:41.105Z,20.27
2017-09-22T08:52:09.462Z,19.60
2017-09-22T08:54:39.247Z,18.60
2017-09-22T08:57:08.915Z,18.37
2017-09-22T08:59:37.903Z,18.50
2017-09-22T09:02:07.693Z,20.23
2017-09-22T09:04:35.982Z,18.10
2017-09-22T09:07:04.307Z,20.90
2017-09-22T09:09:32.612Z,20.20
2017-09-22T09:12:00.902Z,20.30
2017-09-22T09:14:29.259Z,20.30
2017-09-22T09:16:57.547Z,20.17
2017-09-22T09:19:26.971Z,20.33
2017-09-22T09:21:56.655Z,18.30
2017-09-22T09:24:25.211Z,18.67
2017-09-22T09:26:53.502Z,19.17
2017-09-22T09:29:22.052Z,19.17
2017-09-22T09:31:51.149Z,18.57
2017-09-22T09:34:19.439Z,20.03
2017-09-22T09:36:48.587Z,20.90
2017-09-22T09:39:17.284Z,20.43
2017-09-22T09:41:45.752Z,20.20
2017-09-22T09:44:14.181Z,20.47
2017-09-22T09:46:42.712Z,20.90
2017-09-22T09:49:11.815Z,19.67
2017-09-22T09:51:40.322Z,21.47
2017-09-22T09:54:08.644Z,22.10
2017-09-22T09:56:38.506Z,22.00
2017-09-22T09:59:07.019Z,19.97
2017-09-22T10:01:36.812Z,19.70
2017-09-22T10:04:05.196Z,18.80
2017-09-22T10:06:34.898Z,17.80
2017-09-22T10:09:04.690Z,17.63
2017-09-22T10:11:33.778Z,17.40
2017-09-22T10:14:03.498Z,17.63
2017-09-22T10:16:33.177Z,17.93
2017-09-22T10:19:01.498Z,17.30
2017-09-22T10:21:29.837Z,14.73
2017-09-22T10:23:59.514Z,14.87
2017-09-22T10:26:27.727Z,15.13
2017-09-22T10:28:57.574Z,14.67
2017-09-22T10:31:25.863Z,13.77
2017-09-22T10:33:55.494Z,14.47
2017-09-22T10:36:25.000Z,15.13
2017-09-22T10:38:54.475Z,15.03
2017-09-22T10:41:22.862Z,13.50
2017-09-22T10:43:52.667Z,13.30
2017-09-22T10:46:21.231Z,13.97
2017-09-22T10:48:49.534Z,13.70
2017-09-22T10:51:19.230Z,13.67
2017-09-22T10:53:47.866Z,12.00
2017-09-22T10:56:17.539Z,12.00
2017-09-22T10:58:47.302Z,13.10
2017-09-22T11:01:17.098Z,13.10
2017-09-22T11:03:45.470Z,12.87
2017-09-22T11:06:15.335Z,12.57
2017-09-22T11:08:43.650Z,12.50
2017-09-22T11:11:11.938Z,10.50
2017-09-22T11:13:40.298Z,11.60
2017-09-22T11:16:08.583Z,13.20
2017-09-22T11:18:36.863Z,11.20
2017-09-22T11:21:06.594Z,11.00
2017-09-22T11:23:35.135Z,11.27
2017-09-22T11:26:04.554Z,12.47
2017-09-22T11:28:33.297Z,11.23
2017-09-22T11:31:01.851Z,5.67
2017-09-22T11:33:30.516Z,3.97
2017-09-22T11:36:00.177Z,5.43
2017-09-22T11:38:29.835Z,5.13
2017-09-22T11:40:58.107Z,4.70
2017-09-22T11:43:27.215Z,4.57
2017-09-22T11:45:55.486Z,5.60
2017-09-22T11:48:23.755Z,5.33
2017-09-22T11:50:52.083Z,5.40
2017-09-22T11:53:20.499Z,4.87
2017-09-22T11:55:49.671Z,4.70
2017-09-22T11:58:19.450Z,4.80
2017-09-22T12:00:48.846Z,4.97
2017-09-22T12:03:17.911Z,4.67
2017-09-22T12:05:46.824Z,4.00
2017-09-22T12:08:15.180Z,3.40
2017-09-22T12:10:44.998Z,4.13
2017-09-22T12:13:14.718Z,4.60
2017-09-22T12:15:43.457Z,3.90
2017-09-22T12:18:12.502Z,4.47
2017-09-22T12:20:40.823Z,5.07
2017-09-22T12:23:09.303Z,5.53
2017-09-22T12:25:39.208Z,4.60
2017-09-22T12:28:07.535Z,3.93
2017-09-22T12:30:35.924Z,4.00
2017-09-22T12:33:05.368Z,3.77
2017-09-22T12:35:33.823Z,4.93
2017-09-22T12:38:02.120Z,4.67
2017-09-22T12:40:30.503Z,4.27
2017-09-22T12:42:58.940Z,4.40
2017-09-22T12:45:27.983Z,4.33
2017-09-22T12:47:56.300Z,4.80
2017-09-22T12:50:24.739Z,4.03
2017-09-22T12:52:54.720Z,4.20
2017-09-22T12:55:22.995Z,5.20
2017-09-22T12:57:51.512Z,5.27
2017-09-22T13:00:20.590Z,4.13
2017-09-22T13:02:48.879Z,4.60
2017-09-22T13:05:17.233Z,5.10
2017-09-22T13:07:46.889Z,5.50
2017-09-22T13:10:15.991Z,6.50
2017-09-22T13:12:45.676Z,5.30
2017-09-22T13:15:13.999Z,4.93
2017-09-22T13:17:43.135Z,6.10
2017-09-22T13:20:11.610Z,5.83
2017-09-22T13:22:40.780Z,4.87
2017-09-22T13:25:10.727Z,5.13
2017-09-22T13:27:40.444Z,6.93
2017-09-22T13:30:08.647Z,8.00
2017-09-22T13:32:36.923Z,7.97
2017-09-22T13:35:06.023Z,8.70
2017-09-22T13:37:35.071Z,8.97
2017-09-22T13:40:03.412Z,8.87
2017-09-22T13:42:32.508Z,7.67
2017-09-22T13:45:00.787Z,8.37
2017-09-22T13:47:30.602Z,6.70
2017-09-22T13:50:00.535Z,7.57
2017-09-22T13:52:29.467Z,9.70
2017-09-22T13:54:58.881Z,11.20
2017-09-22T13:57:28.038Z,9.40
2017-09-22T13:59:57.084Z,9.10
2017-09-22T14:02:25.366Z,10.07
2017-09-22T14:04:55.045Z,9.33
2017-09-22T14:07:23.999Z,9.47
2017-09-22T14:09:53.631Z,9.50
2017-09-22T14:12:22.599Z,10.20
2017-09-22T14:14:52.227Z,8.83
2017-09-22T14:17:22.965Z,9.70
2017-09-22T14:19:51.196Z,11.67
2017-09-22T14:22:20.312Z,12.40
2017-09-22T14:24:49.496Z,11.13
2017-09-22T14:27:18.622Z,9.80
2017-09-22T14:29:47.895Z,10.50
2017-09-22T14:32:16.847Z,10.20
2017-09-22T14:34:45.227Z,9.27
2017-09-22T14:37:14.935Z,9.67
2017-09-22T14:39:44.215Z,10.53
2017-09-22T14:42:12.973Z,11.40
2017-09-22T14:44:41.306Z,10.33
2017-09-22T14:47:10.938Z,8.27
2017-09-22T14:49:39.970Z,8.80
2017-09-22T14:52:09.603Z,11.10
2017-09-22T14:54:38.335Z,11.50
2017-09-22T14:57:08.178Z,10.60
2017-09-22T14:59:36.756Z,10.53
2017-09-22T15:02:06.419Z,11.00
2017-09-22T15:04:35.011Z,12.43
2017-09-22T15:07:03.360Z,10.37
2017-09-22T15:09:32.130Z,11.50
2017-09-22T15:12:00.463Z,11.40
2017-09-22T15:14:28.806Z,9.83
2017-09-22T15:16:57.108Z,8.90
2017-09-22T15:19:26.783Z,9.50
2017-09-22T15:21:54.955Z,10.50
2017-09-22T15:24:23.287Z,9.20
2017-09-22T15:26:51.606Z,9.30
2017-09-22T15:29:19.894Z,7.57
2017-09-22T15:31:48.177Z,9.00
2017-09-22T15:34:17.983Z,9.10
2017-09-22T15:36:47.634Z,8.37
2017-09-22T15:39:16.578Z,8.80
2017-09-22T15:41:45.682Z,8.50
2017-09-22T15:44:13.980Z,8.47
2017-09-22T15:46:43.082Z,8.97
2017-09-22T15:49:12.177Z,9.70
2017-09-22T15:51:40.527Z,9.50
2017-09-22T15:54:10.445Z,8.20
2017-09-22T15:56:40.299Z,7.87
2017-09-22T15:59:08.572Z,7.87
2017-09-22T16:01:36.843Z,9.13
2017-09-22T16:04:05.578Z,8.87
2017-09-22T16:06:35.109Z,7.07
2017-09-22T16:09:03.559Z,6.73
2017-09-22T16:11:31.968Z,7.10
2017-09-22T16:14:01.802Z,7.50
2017-09-22T16:16:31.626Z,6.63
2017-09-22T16:19:00.206Z,6.37
2017-09-22T16:21:29.620Z,7.30
2017-09-22T16:23:58.653Z,7.97
2017-09-22T16:29:19.923Z,8.30
2017-09-22T16:31:49.546Z,8.07
2017-09-22T16:34:18.252Z,8.53
2017-09-22T16:36:46.791Z,9.80
2017-09-22T16:39:16.452Z,11.00
2017-09-22T16:41:46.296Z,10.57
2017-09-22T16:44:14.548Z,12.03
2017-09-22T16:46:44.766Z,12.60
2017-09-22T16:49:13.150Z,10.03
2017-09-22T16:51:42.862Z,12.90
2017-09-22T16:54:11.576Z,14.47
2017-09-22T16:56:41.379Z,15.63
2017-09-22T16:59:10.096Z,16.10
2017-09-22T17:01:39.887Z,20.50
2017-09-22T17:04:08.812Z,19.03
2017-09-22T17:06:37.624Z,18.67
2017-09-22T17:09:06.876Z,18.53
2017-09-22T17:11:35.626Z,19.67
2017-09-22T17:14:04.015Z,19.90
2017-09-22T17:16:32.290Z,19.10
2017-09-22T17:19:00.879Z,20.23
2017-09-22T17:21:30.310Z,21.50
2017-09-22T17:23:58.655Z,22.87
2017-09-22T17:26:28.636Z,20.00
2017-09-22T17:28:58.375Z,21.67
2017-09-22T17:31:26.966Z,22.23
2017-09-22T17:33:55.942Z,21.87
2017-09-22T17:36:25.422Z,20.50
2017-09-22T17:38:53.937Z,20.27
2017-09-22T17:41:22.990Z,20.30
2017-09-22T17:43:52.140Z,19.53
2017-09-22T17:46:21.230Z,20.77
2017-09-22T17:48:50.862Z,20.87
2017-09-22T17:51:19.740Z,20.80
2017-09-22T17:53:48.068Z,22.77
2017-09-22T17:56:17.233Z,20.30
2017-09-22T17:58:47.097Z,22.07
2017-09-22T18:01:16.201Z,23.90
2017-09-22T18:03:44.826Z,21.83
2017-09-22T18:06:14.377Z,22.60
2017-09-22T18:08:44.619Z,21.70
2017-09-22T18:11:14.572Z,24.80
2017-09-22T18:13:42.971Z,23.90
2017-09-22T18:16:12.066Z,26.97
2017-09-22T18:18:41.147Z,30.40
2017-09-22T18:21:09.822Z,29.30
2017-09-22T18:23:39.654Z,31.27
2017-09-22T18:26:07.942Z,31.33
2017-09-22T18:28:36.223Z,32.90
2017-09-22T18:31:05.327Z,36.30
2017-09-22T18:33:33.615Z,33.93
2017-09-22T18:36:03.247Z,35.50
2017-09-22T18:38:31.863Z,32.30
2017-09-22T18:41:00.141Z,31.10
2017-09-22T18:43:28.436Z,31.90
2017-09-22T18:45:56.773Z,32.60
2017-09-22T18:48:25.054Z,33.73
2017-09-22T18:50:54.685Z,32.63
2017-09-22T18:53:24.402Z,35.63
2017-09-22T18:55:53.086Z,34.27
2017-09-22T18:58:21.384Z,38.97
2017-09-22T19:00:51.273Z,36.83
2017-09-22T19:03:20.960Z,36.23
2017-09-22T19:05:49.915Z,35.57
2017-09-22T19:08:18.270Z,37.07
2017-09-22T19:10:48.074Z,38.53
2017-09-22T19:13:16.407Z,39.03
2017-09-22T19:15:45.575Z,35.20
2017-09-22T19:18:13.922Z,42.17
2017-09-22T19:20:43.789Z,37.27
2017-09-22T19:23:12.174Z,35.13
2017-09-22T19:25:42.002Z,39.00
2017-09-22T19:28:11.639Z,38.90
2017-09-22T19:30:41.015Z,42.43
2017-09-22T19:33:10.117Z,41.77
2017-09-22T19:35:38.394Z,40.47
2017-09-22T19:38:08.079Z,40.87
2017-09-22T19:40:37.008Z,38.60
2017-09-22T19:43:05.333Z,37.40
2017-09-22T19:45:35.030Z,38.60
2017-09-22T19:48:03.584Z,39.17
2017-09-22T19:50:31.872Z,36.10
2017-09-22T19:53:00.208Z,35.90
2017-09-22T19:55:29.254Z,45.10
2017-09-22T19:57:58.937Z,40.50
2017-09-22T20:00:27.935Z,47.77
2017-09-22T20:02:58.478Z,41.10
2017-09-22T20:05:27.535Z,43.07
2017-09-22T20:07:57.210Z,38.57
2017-09-22T20:10:25.768Z,40.53
2017-09-22T20:12:54.051Z,37.33
2017-09-22T20:15:23.761Z,39.30
2017-09-22T20:17:52.567Z,40.37
2017-09-22T20:20:20.854Z,40.27
2017-09-22T20:22:49.473Z,37.90
2017-09-22T20:25:19.356Z,37.50
2017-09-22T20:27:49.043Z,41.07
2017-09-22T20:30:18.627Z,41.03
2017-09-22T20:32:46.799Z,44.00
2017-09-22T20:35:16.247Z,43.33
2017-09-22T20:37:45.112Z,40.20
2017-09-22T20:40:14.792Z,44.77
2017-09-22T20:42:43.171Z,38.03
2017-09-22T20:45:11.710Z,44.10
2017-09-22T20:47:39.990Z,42.83
2017-09-22T20:50:08.292Z,41.90
2017-09-22T20:52:36.729Z,46.77
2017-09-22T20:55:05.964Z,47.47
2017-09-22T20:57:34.286Z,47.63
2017-09-22T21:00:02.620Z,49.77
2017-09-22T21:02:31.311Z,52.63
2017-09-22T21:05:01.115Z,48.60
2017-09-22T21:07:30.834Z,48.80
2017-09-22T21:09:59.382Z,49.67
2017-09-22T21:12:28.439Z,48.00
2017-09-22T21:14:56.790Z,48.00
2017-09-22T21:17:25.839Z,51.37
2017-09-22T21:19:54.886Z,44.50
2017-09-22T21:22:23.621Z,48.13
2017-09-22T21:24:53.050Z,48.57
2017-09-22T21:27:21.595Z,46.57
2017-09-22T21:29:50.419Z,49.20
2017-09-22T21:32:19.852Z,48.00
2017-09-22T21:34:48.164Z,47.77
2017-09-22T21:37:18.155Z,49.87
2017-09-22T21:39:47.806Z,45.90
2017-09-22T21:42:16.359Z,48.13
2017-09-22T21:44:44.686Z,47.57
2017-09-22T21:47:14.325Z,47.20
2017-09-22T21:49:43.862Z,44.70
2017-09-22T21:52:12.475Z,49.50
2017-09-22T21:54:41.527Z,46.17
2017-09-22T21:57:10.603Z,46.00
2017-09-22T21:59:40.066Z,47.07
2017-09-22T22:02:08.743Z,45.13
2017-09-22T22:04:44.230Z,45.30
2017-09-22T22:07:18.718Z,47.60
2017-09-22T22:09:47.092Z,46.67
2017-09-22T22:12:15.378Z,48.27
2017-09-22T22:15:03.343Z,48.43
2017-09-22T22:17:32.395Z,51.73
2017-09-22T22:20:00.716Z,50.70
2017-09-22T22:22:30.162Z,50.50
2017-09-22T22:24:59.794Z,47.77
2017-09-22T22:27:28.355Z,52.23
2017-09-22T22:29:57.049Z,51.47
2017-09-22T22:32:25.330Z,49.50
2017-09-22T22:34:54.382Z,49.63
2017-09-22T22:37:31.468Z,47.67
2017-09-22T22:39:59.751Z,53.20
2017-09-22T22:42:28.797Z,52.50
2017-09-22T22:44:57.136Z,51.10
2017-09-22T22:47:26.770Z,55.77
2017-09-22T22:49:54.934Z,50.73
2017-09-22T22:52:23.276Z,51.40
2017-09-22T22:54:51.569Z,54.60
2017-09-22T22:57:19.863Z,56.47
2017-09-22T22:59:48.219Z,53.03
2017-09-22T23:02:17.886Z,54.00
2017-09-22T23:04:47.417Z,55.07
2017-09-22T23:07:16.031Z,54.47
2017-09-22T23:09:44.319Z,58.83
2017-09-22T23:12:12.607Z,60.13
2017-09-22T23:14:42.293Z,56.77
2017-09-22T23:17:11.229Z,54.23
2017-09-22T23:19:39.515Z,56.67
2017-09-22T23:22:08.626Z,59.13
2017-09-22T23:24:36.937Z,55.30
2017-09-22T23:27:06.759Z,56.47
2017-09-22T23:29:36.480Z,54.83
2017-09-22T23:32:05.041Z,54.93
2017-09-22T23:34:33.322Z,59.40
2017-09-22T23:37:01.651Z,55.03
2017-09-22T23:39:31.075Z,56.60
2017-09-22T23:41:59.363Z,54.17
2017-09-22T23:44:27.714Z,56.27
2017-09-22T23:46:55.999Z,54.20
2017-09-22T23:49:24.285Z,56.40
2017-09-22T23:51:53.981Z,56.50
2017-09-22T23:54:22.572Z,54.77
2017-09-22T23:56:52.221Z,54.33
2017-09-22T23:59:21.267Z,58.50
